Terminal Aerodrome Forecast
Issued by NWS

Home | Current Version | Previous Version | Text Only | Print | Product List | Glossary On
Versions: 1 2 3 4 5 6 7 8 9 10 11 12 13 14 15 16 17 18 19 20 21 22
000
FTUS46 KLOX 271928 AAA
TAFBUR
TAF AMD
KBUR 271928Z 2719/2818 VRB05KT P6SM FEW025
     FM272100 18008KT P6SM SCT020
     FM280200 VRB03KT P6SM SKC
     FM280400 VRB03KT P6SM SKC
     FM280900 15004KT P6SM BKN012
     FM281200 VRB03KT 5SM HZ OVC010=

USA.gov is the U.S. government's official web portal to all federal, state and local government web resources and services.